sensor_id;sensor_type;location;lat;lon;timestamp;P1;durP1;ratioP1;P2;durP2;ratioP2
14316;SDS011;7242;50.858;6.586;2023-02-26T00:02:23;8.03;;;2.53;;
14316;SDS011;7242;50.858;6.586;2023-02-26T00:05:23;4.60;;;2.50;;
14316;SDS011;7242;50.858;6.586;2023-02-26T00:08:24;4.23;;;1.90;;
14316;SDS011;7242;50.858;6.586;2023-02-26T00:11:25;5.77;;;2.07;;
14316;SDS011;7242;50.858;6.586;2023-02-26T00:14:26;5.07;;;1.97;;
14316;SDS011;7242;50.858;6.586;2023-02-26T00:20:53;5.77;;;2.20;;
14316;SDS011;7242;50.858;6.586;2023-02-26T00:23:54;6.80;;;2.20;;
14316;SDS011;7242;50.858;6.586;2023-02-26T00:26:55;8.93;;;2.20;;
14316;SDS011;7242;50.858;6.586;2023-02-26T00:29:56;5.50;;;2.27;;
14316;SDS011;7242;50.858;6.586;2023-02-26T00:32:57;4.97;;;2.00;;
14316;SDS011;7242;50.858;6.586;2023-02-26T00:42:45;5.53;;;2.10;;
14316;SDS011;7242;50.858;6.586;2023-02-26T00:56:00;8.23;;;2.20;;
14316;SDS011;7242;50.858;6.586;2023-02-26T00:59:01;4.80;;;1.90;;
14316;SDS011;7242;50.858;6.586;2023-02-26T01:02:02;5.87;;;1.77;;
14316;SDS011;7242;50.858;6.586;2023-02-26T01:05:03;3.87;;;1.60;;
14316;SDS011;7242;50.858;6.586;2023-02-26T01:08:07;3.30;;;1.70;;
14316;SDS011;7242;50.858;6.586;2023-02-26T01:11:14;5.20;;;1.70;;
14316;SDS011;7242;50.858;6.586;2023-02-26T01:14:15;7.90;;;2.20;;
14316;SDS011;7242;50.858;6.586;2023-02-26T01:17:24;6.20;;;1.90;;
14316;SDS011;7242;50.858;6.586;2023-02-26T01:20:36;7.47;;;1.87;;
14316;SDS011;7242;50.858;6.586;2023-02-26T01:23:48;3.23;;;1.60;;
14316;SDS011;7242;50.858;6.586;2023-02-26T01:26:51;5.50;;;1.83;;
14316;SDS011;7242;50.858;6.586;2023-02-26T01:29:53;6.57;;;1.80;;
14316;SDS011;7242;50.858;6.586;2023-02-26T01:32:59;6.07;;;2.10;;
14316;SDS011;7242;50.858;6.586;2023-02-26T01:36:08;4.47;;;1.80;;
14316;SDS011;7242;50.858;6.586;2023-02-26T01:39:14;4.57;;;1.73;;
14316;SDS011;7242;50.858;6.586;2023-02-26T01:42:26;3.93;;;1.90;;
14316;SDS011;7242;50.858;6.586;2023-02-26T01:45:31;3.90;;;1.80;;
14316;SDS011;7242;50.858;6.586;2023-02-26T01:48:37;5.20;;;1.90;;
14316;SDS011;7242;50.858;6.586;2023-02-26T01:51:59;4.67;;;1.80;;
14316;SDS011;7242;50.858;6.586;2023-02-26T01:55:04;4.33;;;1.93;;
14316;SDS011;7242;50.858;6.586;2023-02-26T01:58:05;6.53;;;2.17;;
14316;SDS011;7242;50.858;6.586;2023-02-26T02:01:06;4.17;;;2.00;;
14316;SDS011;7242;50.858;6.586;2023-02-26T02:04:12;5.57;;;2.10;;
14316;SDS011;7242;50.858;6.586;2023-02-26T02:07:14;9.67;;;2.40;;
14316;SDS011;7242;50.858;6.586;2023-02-26T02:10:15;4.20;;;1.80;;
14316;SDS011;7242;50.858;6.586;2023-02-26T02:16:45;4.23;;;1.90;;
14316;SDS011;7242;50.858;6.586;2023-02-26T02:27:10;5.17;;;2.20;;
14316;SDS011;7242;50.858;6.586;2023-02-26T02:33:31;5.87;;;2.10;;
14316;SDS011;7242;50.858;6.586;2023-02-26T02:36:43;4.27;;;2.10;;
14316;SDS011;7242;50.858;6.586;2023-02-26T02:39:50;6.50;;;2.43;;
14316;SDS011;7242;50.858;6.586;2023-02-26T02:46:17;5.10;;;2.10;;
14316;SDS011;7242;50.858;6.586;2023-02-26T02:49:30;4.90;;;2.00;;
14316;SDS011;7242;50.858;6.586;2023-02-26T02:52:43;6.87;;;2.10;;
14316;SDS011;7242;50.858;6.586;2023-02-26T02:55:52;6.43;;;2.43;;
14316;SDS011;7242;50.858;6.586;2023-02-26T02:59:02;6.83;;;2.50;;
14316;SDS011;7242;50.858;6.586;2023-02-26T03:02:21;5.40;;;2.50;;
14316;SDS011;7242;50.858;6.586;2023-02-26T03:05:23;7.03;;;2.47;;
14316;SDS011;7242;50.858;6.586;2023-02-26T03:08:28;4.93;;;2.20;;
14316;SDS011;7242;50.858;6.586;2023-02-26T03:11:36;9.07;;;2.90;;
14316;SDS011;7242;50.858;6.586;2023-02-26T03:14:38;5.27;;;2.57;;
14316;SDS011;7242;50.858;6.586;2023-02-26T03:21:09;5.20;;;2.57;;
14316;SDS011;7242;50.858;6.586;2023-02-26T03:24:35;5.07;;;2.30;;
14316;SDS011;7242;50.858;6.586;2023-02-26T03:27:45;5.17;;;2.40;;
14316;SDS011;7242;50.858;6.586;2023-02-26T03:31:00;7.53;;;2.90;;
14316;SDS011;7242;50.858;6.586;2023-02-26T03:34:20;8.83;;;2.60;;
14316;SDS011;7242;50.858;6.586;2023-02-26T03:37:26;8.83;;;2.43;;
14316;SDS011;7242;50.858;6.586;2023-02-26T03:40:46;5.87;;;2.50;;
14316;SDS011;7242;50.858;6.586;2023-02-26T03:43:54;6.17;;;2.50;;
14316;SDS011;7242;50.858;6.586;2023-02-26T03:47:04;6.23;;;2.27;;
14316;SDS011;7242;50.858;6.586;2023-02-26T03:50:14;4.77;;;2.20;;
14316;SDS011;7242;50.858;6.586;2023-02-26T03:53:30;6.30;;;2.27;;
14316;SDS011;7242;50.858;6.586;2023-02-26T03:56:44;6.53;;;2.10;;
14316;SDS011;7242;50.858;6.586;2023-02-26T04:00:20;3.30;;;2.00;;
14316;SDS011;7242;50.858;6.586;2023-02-26T04:03:27;4.67;;;2.00;;
14316;SDS011;7242;50.858;6.586;2023-02-26T04:06:50;4.70;;;2.10;;
14316;SDS011;7242;50.858;6.586;2023-02-26T04:09:53;4.83;;;2.10;;
14316;SDS011;7242;50.858;6.586;2023-02-26T04:12:59;5.03;;;1.83;;
14316;SDS011;7242;50.858;6.586;2023-02-26T04:16:01;4.83;;;2.07;;
14316;SDS011;7242;50.858;6.586;2023-02-26T04:19:02;5.83;;;2.00;;
14316;SDS011;7242;50.858;6.586;2023-02-26T04:22:04;3.77;;;1.40;;
14316;SDS011;7242;50.858;6.586;2023-02-26T04:25:05;3.57;;;1.67;;
14316;SDS011;7242;50.858;6.586;2023-02-26T04:28:06;4.27;;;1.50;;
14316;SDS011;7242;50.858;6.586;2023-02-26T04:31:07;4.93;;;1.67;;
14316;SDS011;7242;50.858;6.586;2023-02-26T04:34:09;4.53;;;1.83;;
14316;SDS011;7242;50.858;6.586;2023-02-26T04:37:12;3.67;;;1.90;;
14316;SDS011;7242;50.858;6.586;2023-02-26T04:40:13;3.40;;;1.60;;
14316;SDS011;7242;50.858;6.586;2023-02-26T04:43:15;4.93;;;1.67;;
14316;SDS011;7242;50.858;6.586;2023-02-26T04:46:26;3.37;;;1.70;;
14316;SDS011;7242;50.858;6.586;2023-02-26T04:49:27;5.73;;;1.40;;
14316;SDS011;7242;50.858;6.586;2023-02-26T04:52:28;3.23;;;1.40;;
14316;SDS011;7242;50.858;6.586;2023-02-26T04:55:28;3.53;;;1.60;;
14316;SDS011;7242;50.858;6.586;2023-02-26T04:58:30;3.40;;;1.60;;
14316;SDS011;7242;50.858;6.586;2023-02-26T05:01:37;3.87;;;1.50;;
14316;SDS011;7242;50.858;6.586;2023-02-26T05:04:41;3.73;;;1.50;;
14316;SDS011;7242;50.858;6.586;2023-02-26T05:07:42;2.60;;;1.30;;
14316;SDS011;7242;50.858;6.586;2023-02-26T05:10:43;4.30;;;1.60;;
14316;SDS011;7242;50.858;6.586;2023-02-26T05:13:44;3.93;;;1.57;;
14316;SDS011;7242;50.858;6.586;2023-02-26T05:16:45;3.40;;;1.43;;
14316;SDS011;7242;50.858;6.586;2023-02-26T05:19:47;6.47;;;1.50;;
14316;SDS011;7242;50.858;6.586;2023-02-26T05:22:49;3.80;;;1.60;;
14316;SDS011;7242;50.858;6.586;2023-02-26T05:25:50;4.17;;;1.50;;
14316;SDS011;7242;50.858;6.586;2023-02-26T05:28:51;5.67;;;1.67;;
14316;SDS011;7242;50.858;6.586;2023-02-26T05:31:52;5.20;;;1.63;;
14316;SDS011;7242;50.858;6.586;2023-02-26T05:34:53;6.40;;;1.70;;
14316;SDS011;7242;50.858;6.586;2023-02-26T05:37:54;5.37;;;1.50;;
14316;SDS011;7242;50.858;6.586;2023-02-26T05:40:55;4.00;;;1.80;;
14316;SDS011;7242;50.858;6.586;2023-02-26T05:43:57;5.77;;;1.80;;
14316;SDS011;7242;50.858;6.586;2023-02-26T05:46:58;4.30;;;1.80;;
14316;SDS011;7242;50.858;6.586;2023-02-26T05:49:58;4.17;;;1.70;;
14316;SDS011;7242;50.858;6.586;2023-02-26T05:53:00;4.07;;;1.83;;
14316;SDS011;7242;50.858;6.586;2023-02-26T05:56:00;5.70;;;2.00;;
14316;SDS011;7242;50.858;6.586;2023-02-26T05:59:02;2.97;;;1.80;;
14316;SDS011;7242;50.858;6.586;2023-02-26T06:02:03;4.30;;;1.90;;
14316;SDS011;7242;50.858;6.586;2023-02-26T06:05:04;4.20;;;1.80;;
14316;SDS011;7242;50.858;6.586;2023-02-26T06:08:05;4.23;;;1.63;;
14316;SDS011;7242;50.858;6.586;2023-02-26T06:11:06;6.43;;;1.93;;
14316;SDS011;7242;50.858;6.586;2023-02-26T06:14:07;5.13;;;1.77;;
14316;SDS011;7242;50.858;6.586;2023-02-26T06:17:08;5.97;;;1.97;;
14316;SDS011;7242;50.858;6.586;2023-02-26T06:20:09;2.87;;;1.70;;
14316;SDS011;7242;50.858;6.586;2023-02-26T06:23:11;4.60;;;1.70;;
14316;SDS011;7242;50.858;6.586;2023-02-26T06:26:14;4.10;;;1.73;;
14316;SDS011;7242;50.858;6.586;2023-02-26T06:29:14;3.40;;;1.60;;
14316;SDS011;7242;50.858;6.586;2023-02-26T06:32:17;4.97;;;1.60;;
14316;SDS011;7242;50.858;6.586;2023-02-26T06:35:18;5.23;;;1.77;;
14316;SDS011;7242;50.858;6.586;2023-02-26T06:38:19;6.33;;;1.90;;
14316;SDS011;7242;50.858;6.586;2023-02-26T06:41:20;7.33;;;1.70;;
14316;SDS011;7242;50.858;6.586;2023-02-26T06:44:21;5.13;;;1.80;;
14316;SDS011;7242;50.858;6.586;2023-02-26T06:47:22;5.43;;;1.80;;
14316;SDS011;7242;50.858;6.586;2023-02-26T06:50:23;2.47;;;1.70;;
14316;SDS011;7242;50.858;6.586;2023-02-26T06:53:24;5.20;;;1.63;;
14316;SDS011;7242;50.858;6.586;2023-02-26T06:56:25;5.47;;;1.73;;
14316;SDS011;7242;50.858;6.586;2023-02-26T06:59:27;3.83;;;1.50;;
14316;SDS011;7242;50.858;6.586;2023-02-26T07:02:28;7.83;;;1.70;;
14316;SDS011;7242;50.858;6.586;2023-02-26T07:05:29;6.30;;;2.00;;
14316;SDS011;7242;50.858;6.586;2023-02-26T07:08:30;2.83;;;1.63;;
14316;SDS011;7242;50.858;6.586;2023-02-26T07:11:31;6.60;;;1.70;;
14316;SDS011;7242;50.858;6.586;2023-02-26T07:14:32;4.40;;;1.70;;
14316;SDS011;7242;50.858;6.586;2023-02-26T07:17:33;3.27;;;1.50;;
14316;SDS011;7242;50.858;6.586;2023-02-26T07:20:34;4.63;;;1.63;;
14316;SDS011;7242;50.858;6.586;2023-02-26T07:23:35;4.37;;;1.53;;
14316;SDS011;7242;50.858;6.586;2023-02-26T07:26:36;2.83;;;1.63;;
14316;SDS011;7242;50.858;6.586;2023-02-26T07:29:38;4.60;;;1.47;;
14316;SDS011;7242;50.858;6.586;2023-02-26T07:32:38;5.43;;;1.90;;
14316;SDS011;7242;50.858;6.586;2023-02-26T07:35:39;5.07;;;1.67;;
14316;SDS011;7242;50.858;6.586;2023-02-26T07:38:40;3.33;;;1.43;;
14316;SDS011;7242;50.858;6.586;2023-02-26T07:41:41;5.30;;;1.70;;
14316;SDS011;7242;50.858;6.586;2023-02-26T07:44:48;7.53;;;1.87;;
14316;SDS011;7242;50.858;6.586;2023-02-26T07:47:52;3.67;;;1.70;;
14316;SDS011;7242;50.858;6.586;2023-02-26T07:50:53;3.97;;;1.60;;
14316;SDS011;7242;50.858;6.586;2023-02-26T07:53:54;2.00;;;1.40;;
14316;SDS011;7242;50.858;6.586;2023-02-26T07:56:55;2.80;;;1.00;;
14316;SDS011;7242;50.858;6.586;2023-02-26T07:59:55;4.33;;;1.70;;
14316;SDS011;7242;50.858;6.586;2023-02-26T08:02:56;3.33;;;1.37;;
14316;SDS011;7242;50.858;6.586;2023-02-26T08:05:57;4.57;;;1.53;;
14316;SDS011;7242;50.858;6.586;2023-02-26T08:09:02;4.07;;;1.60;;
14316;SDS011;7242;50.858;6.586;2023-02-26T08:12:03;1.90;;;1.40;;
14316;SDS011;7242;50.858;6.586;2023-02-26T08:15:04;3.00;;;1.50;;
14316;SDS011;7242;50.858;6.586;2023-02-26T08:18:05;3.10;;;1.40;;
14316;SDS011;7242;50.858;6.586;2023-02-26T08:21:06;4.70;;;1.63;;
14316;SDS011;7242;50.858;6.586;2023-02-26T08:24:06;5.27;;;1.67;;
14316;SDS011;7242;50.858;6.586;2023-02-26T08:27:07;2.33;;;1.30;;
14316;SDS011;7242;50.858;6.586;2023-02-26T08:30:09;2.93;;;1.30;;
14316;SDS011;7242;50.858;6.586;2023-02-26T08:33:10;1.90;;;1.43;;
14316;SDS011;7242;50.858;6.586;2023-02-26T08:36:11;2.10;;;1.50;;
14316;SDS011;7242;50.858;6.586;2023-02-26T08:39:12;2.93;;;1.50;;
14316;SDS011;7242;50.858;6.586;2023-02-26T08:42:13;3.50;;;1.50;;
14316;SDS011;7242;50.858;6.586;2023-02-26T08:45:15;4.37;;;1.70;;
14316;SDS011;7242;50.858;6.586;2023-02-26T08:48:16;2.27;;;1.57;;
14316;SDS011;7242;50.858;6.586;2023-02-26T08:51:18;3.50;;;1.70;;
14316;SDS011;7242;50.858;6.586;2023-02-26T08:54:19;4.83;;;1.80;;
14316;SDS011;7242;50.858;6.586;2023-02-26T08:57:21;4.33;;;1.67;;
14316;SDS011;7242;50.858;6.586;2023-02-26T09:00:21;2.93;;;1.70;;
14316;SDS011;7242;50.858;6.586;2023-02-26T09:03:23;4.20;;;1.70;;
14316;SDS011;7242;50.858;6.586;2023-02-26T09:06:24;4.83;;;1.83;;
14316;SDS011;7242;50.858;6.586;2023-02-26T09:09:24;2.30;;;1.30;;
14316;SDS011;7242;50.858;6.586;2023-02-26T09:12:25;3.03;;;1.90;;
14316;SDS011;7242;50.858;6.586;2023-02-26T09:15:26;4.40;;;1.77;;
14316;SDS011;7242;50.858;6.586;2023-02-26T09:18:28;3.27;;;1.80;;
14316;SDS011;7242;50.858;6.586;2023-02-26T09:21:29;2.33;;;1.67;;
14316;SDS011;7242;50.858;6.586;2023-02-26T09:24:30;3.93;;;1.60;;
14316;SDS011;7242;50.858;6.586;2023-02-26T09:27:31;3.87;;;1.40;;
14316;SDS011;7242;50.858;6.586;2023-02-26T09:30:32;3.23;;;1.40;;
14316;SDS011;7242;50.858;6.586;2023-02-26T09:33:33;3.77;;;2.00;;
14316;SDS011;7242;50.858;6.586;2023-02-26T09:36:34;3.33;;;1.37;;
14316;SDS011;7242;50.858;6.586;2023-02-26T09:39:36;3.53;;;1.40;;
14316;SDS011;7242;50.858;6.586;2023-02-26T09:46:22;2.93;;;1.73;;
14316;SDS011;7242;50.858;6.586;2023-02-26T09:53:10;4.40;;;1.77;;
14316;SDS011;7242;50.858;6.586;2023-02-26T09:56:24;3.23;;;1.70;;
14316;SDS011;7242;50.858;6.586;2023-02-26T09:59:28;5.10;;;1.73;;
14316;SDS011;7242;50.858;6.586;2023-02-26T10:08:37;4.10;;;1.20;;
14316;SDS011;7242;50.858;6.586;2023-02-26T10:15:08;2.40;;;1.33;;
14316;SDS011;7242;50.858;6.586;2023-02-26T10:18:22;3.07;;;1.57;;
14316;SDS011;7242;50.858;6.586;2023-02-26T10:21:39;4.70;;;1.30;;
14316;SDS011;7242;50.858;6.586;2023-02-26T10:24:45;4.87;;;1.30;;
14316;SDS011;7242;50.858;6.586;2023-02-26T10:31:39;3.30;;;1.30;;
14316;SDS011;7242;50.858;6.586;2023-02-26T10:34:50;3.80;;;1.43;;
14316;SDS011;7242;50.858;6.586;2023-02-26T10:38:01;2.60;;;1.23;;
14316;SDS011;7242;50.858;6.586;2023-02-26T10:41:09;2.67;;;1.20;;
14316;SDS011;7242;50.858;6.586;2023-02-26T10:47:26;2.07;;;1.10;;
14316;SDS011;7242;50.858;6.586;2023-02-26T10:50:50;2.77;;;1.57;;
14316;SDS011;7242;50.858;6.586;2023-02-26T10:54:26;3.00;;;1.50;;
14316;SDS011;7242;50.858;6.586;2023-02-26T10:57:41;3.20;;;1.50;;
14316;SDS011;7242;50.858;6.586;2023-02-26T11:00:48;2.23;;;0.83;;
14316;SDS011;7242;50.858;6.586;2023-02-26T11:03:56;1.77;;;0.90;;
14316;SDS011;7242;50.858;6.586;2023-02-26T11:06:58;1.17;;;0.80;;
14316;SDS011;7242;50.858;6.586;2023-02-26T11:10:01;2.57;;;0.90;;
14316;SDS011;7242;50.858;6.586;2023-02-26T11:13:02;3.23;;;1.10;;
14316;SDS011;7242;50.858;6.586;2023-02-26T11:16:15;2.50;;;1.00;;
14316;SDS011;7242;50.858;6.586;2023-02-26T11:19:19;1.97;;;0.90;;
14316;SDS011;7242;50.858;6.586;2023-02-26T11:22:27;4.33;;;1.17;;
14316;SDS011;7242;50.858;6.586;2023-02-26T11:25:31;1.63;;;0.80;;
14316;SDS011;7242;50.858;6.586;2023-02-26T11:28:36;2.73;;;1.00;;
14316;SDS011;7242;50.858;6.586;2023-02-26T11:31:46;1.67;;;1.00;;
14316;SDS011;7242;50.858;6.586;2023-02-26T11:34:49;1.67;;;1.30;;
14316;SDS011;7242;50.858;6.586;2023-02-26T11:37:52;3.13;;;1.13;;
14316;SDS011;7242;50.858;6.586;2023-02-26T11:40:58;2.63;;;1.07;;
14316;SDS011;7242;50.858;6.586;2023-02-26T11:44:02;2.80;;;1.17;;
14316;SDS011;7242;50.858;6.586;2023-02-26T11:47:09;2.60;;;1.40;;
14316;SDS011;7242;50.858;6.586;2023-02-26T11:50:13;3.00;;;1.40;;
14316;SDS011;7242;50.858;6.586;2023-02-26T11:53:31;1.80;;;0.93;;
14316;SDS011;7242;50.858;6.586;2023-02-26T11:56:36;1.73;;;0.97;;
14316;SDS011;7242;50.858;6.586;2023-02-26T11:59:40;3.03;;;1.17;;
14316;SDS011;7242;50.858;6.586;2023-02-26T12:02:44;3.27;;;1.00;;
14316;SDS011;7242;50.858;6.586;2023-02-26T12:05:45;1.63;;;1.00;;
14316;SDS011;7242;50.858;6.586;2023-02-26T12:08:46;1.43;;;0.90;;
14316;SDS011;7242;50.858;6.586;2023-02-26T12:18:17;3.23;;;1.10;;
14316;SDS011;7242;50.858;6.586;2023-02-26T12:37:54;1.37;;;0.70;;
14316;SDS011;7242;50.858;6.586;2023-02-26T12:41:23;2.87;;;0.90;;
14316;SDS011;7242;50.858;6.586;2023-02-26T13:17:35;2.37;;;0.80;;
14316;SDS011;7242;50.858;6.586;2023-02-26T13:20:28;1.50;;;0.80;;
14316;SDS011;7242;50.858;6.586;2023-02-26T13:23:32;1.50;;;1.00;;
14316;SDS011;7242;50.858;6.586;2023-02-26T13:26:38;1.43;;;0.63;;
14316;SDS011;7242;50.858;6.586;2023-02-26T13:29:43;2.77;;;1.00;;
14316;SDS011;7242;50.858;6.586;2023-02-26T13:32:49;1.43;;;0.90;;
14316;SDS011;7242;50.858;6.586;2023-02-26T13:35:53;1.80;;;1.00;;
14316;SDS011;7242;50.858;6.586;2023-02-26T13:39:11;1.80;;;1.10;;
14316;SDS011;7242;50.858;6.586;2023-02-26T13:42:46;1.77;;;0.90;;
14316;SDS011;7242;50.858;6.586;2023-02-26T13:49:23;1.97;;;1.20;;
14316;SDS011;7242;50.858;6.586;2023-02-26T13:52:47;2.27;;;0.87;;
14316;SDS011;7242;50.858;6.586;2023-02-26T13:55:51;1.97;;;0.90;;
14316;SDS011;7242;50.858;6.586;2023-02-26T13:58:54;2.60;;;1.10;;
14316;SDS011;7242;50.858;6.586;2023-02-26T14:05:28;2.10;;;1.27;;
14316;SDS011;7242;50.858;6.586;2023-02-26T14:08:55;2.07;;;1.03;;
14316;SDS011;7242;50.858;6.586;2023-02-26T14:11:58;2.73;;;1.03;;
14316;SDS011;7242;50.858;6.586;2023-02-26T14:15:18;2.17;;;1.20;;
14316;SDS011;7242;50.858;6.586;2023-02-26T14:21:47;2.70;;;0.93;;
14316;SDS011;7242;50.858;6.586;2023-02-26T14:25:00;2.93;;;0.90;;
14316;SDS011;7242;50.858;6.586;2023-02-26T14:31:24;2.47;;;0.97;;
14316;SDS011;7242;50.858;6.586;2023-02-26T14:34:27;1.63;;;0.90;;
14316;SDS011;7242;50.858;6.586;2023-02-26T14:37:31;1.50;;;0.97;;
14316;SDS011;7242;50.858;6.586;2023-02-26T14:40:41;3.17;;;1.10;;
14316;SDS011;7242;50.858;6.586;2023-02-26T14:43:52;2.53;;;1.30;;
14316;SDS011;7242;50.858;6.586;2023-02-26T14:47:01;2.80;;;1.30;;
14316;SDS011;7242;50.858;6.586;2023-02-26T14:50:04;1.97;;;0.90;;
14316;SDS011;7242;50.858;6.586;2023-02-26T15:03:19;2.60;;;1.00;;
14316;SDS011;7242;50.858;6.586;2023-02-26T15:06:46;2.00;;;1.00;;
14316;SDS011;7242;50.858;6.586;2023-02-26T15:16:34;2.47;;;1.27;;
14316;SDS011;7242;50.858;6.586;2023-02-26T15:22:59;1.53;;;1.10;;
14316;SDS011;7242;50.858;6.586;2023-02-26T15:26:20;2.37;;;0.97;;
14316;SDS011;7242;50.858;6.586;2023-02-26T15:29:26;1.40;;;1.00;;
14316;SDS011;7242;50.858;6.586;2023-02-26T15:32:34;1.27;;;0.90;;
14316;SDS011;7242;50.858;6.586;2023-02-26T15:35:36;3.57;;;0.80;;
14316;SDS011;7242;50.858;6.586;2023-02-26T15:38:48;2.37;;;1.07;;
14316;SDS011;7242;50.858;6.586;2023-02-26T15:41:53;2.07;;;1.10;;
14316;SDS011;7242;50.858;6.586;2023-02-26T15:44:55;3.10;;;1.30;;
14316;SDS011;7242;50.858;6.586;2023-02-26T15:48:02;1.50;;;1.10;;
14316;SDS011;7242;50.858;6.586;2023-02-26T15:51:23;2.37;;;1.10;;
14316;SDS011;7242;50.858;6.586;2023-02-26T15:54:26;1.77;;;1.00;;
14316;SDS011;7242;50.858;6.586;2023-02-26T15:57:47;4.90;;;3.00;;
14316;SDS011;7242;50.858;6.586;2023-02-26T16:00:54;2.90;;;0.93;;
14316;SDS011;7242;50.858;6.586;2023-02-26T16:04:06;0.97;;;0.80;;
14316;SDS011;7242;50.858;6.586;2023-02-26T16:07:11;2.10;;;0.97;;
14316;SDS011;7242;50.858;6.586;2023-02-26T16:10:17;2.43;;;1.00;;
14316;SDS011;7242;50.858;6.586;2023-02-26T16:13:30;1.50;;;0.87;;
14316;SDS011;7242;50.858;6.586;2023-02-26T16:16:35;2.10;;;0.80;;
14316;SDS011;7242;50.858;6.586;2023-02-26T16:19:46;2.43;;;0.97;;
14316;SDS011;7242;50.858;6.586;2023-02-26T16:22:50;1.40;;;0.77;;
14316;SDS011;7242;50.858;6.586;2023-02-26T16:25:59;1.13;;;0.80;;
14316;SDS011;7242;50.858;6.586;2023-02-26T16:29:06;2.13;;;1.00;;
14316;SDS011;7242;50.858;6.586;2023-02-26T16:32:14;1.40;;;0.90;;
14316;SDS011;7242;50.858;6.586;2023-02-26T16:35:18;1.57;;;0.90;;
14316;SDS011;7242;50.858;6.586;2023-02-26T16:38:27;1.53;;;0.90;;
14316;SDS011;7242;50.858;6.586;2023-02-26T16:41:33;1.23;;;0.80;;
14316;SDS011;7242;50.858;6.586;2023-02-26T16:45:19;1.47;;;0.83;;
14316;SDS011;7242;50.858;6.586;2023-02-26T16:48:03;1.30;;;1.00;;
14316;SDS011;7242;50.858;6.586;2023-02-26T16:51:12;1.97;;;1.00;;
14316;SDS011;7242;50.858;6.586;2023-02-26T16:54:19;1.17;;;1.00;;
14316;SDS011;7242;50.858;6.586;2023-02-26T16:57:24;1.13;;;0.80;;
14316;SDS011;7242;50.858;6.586;2023-02-26T17:00:31;1.90;;;1.10;;
14316;SDS011;7242;50.858;6.586;2023-02-26T17:03:33;1.93;;;1.00;;
14316;SDS011;7242;50.858;6.586;2023-02-26T17:06:36;2.50;;;1.10;;
14316;SDS011;7242;50.858;6.586;2023-02-26T17:09:39;1.73;;;1.00;;
14316;SDS011;7242;50.858;6.586;2023-02-26T17:12:45;3.27;;;1.07;;
14316;SDS011;7242;50.858;6.586;2023-02-26T17:15:48;1.53;;;0.90;;
14316;SDS011;7242;50.858;6.586;2023-02-26T17:18:50;1.53;;;1.10;;
14316;SDS011;7242;50.858;6.586;2023-02-26T17:21:52;2.03;;;1.00;;
14316;SDS011;7242;50.858;6.586;2023-02-26T17:24:56;2.00;;;0.87;;
14316;SDS011;7242;50.858;6.586;2023-02-26T17:27:57;1.43;;;1.03;;
14316;SDS011;7242;50.858;6.586;2023-02-26T17:30:58;2.67;;;1.20;;
14316;SDS011;7242;50.858;6.586;2023-02-26T17:34:00;1.80;;;1.27;;
14316;SDS011;7242;50.858;6.586;2023-02-26T17:37:01;2.63;;;1.20;;
14316;SDS011;7242;50.858;6.586;2023-02-26T17:40:20;2.27;;;1.07;;
14316;SDS011;7242;50.858;6.586;2023-02-26T17:43:23;1.87;;;1.20;;
14316;SDS011;7242;50.858;6.586;2023-02-26T17:46:24;2.43;;;1.47;;
14316;SDS011;7242;50.858;6.586;2023-02-26T17:49:25;2.30;;;1.20;;
14316;SDS011;7242;50.858;6.586;2023-02-26T17:52:26;1.67;;;1.10;;
14316;SDS011;7242;50.858;6.586;2023-02-26T17:55:27;1.83;;;1.10;;
14316;SDS011;7242;50.858;6.586;2023-02-26T18:01:29;2.47;;;1.30;;
14316;SDS011;7242;50.858;6.586;2023-02-26T18:04:30;1.67;;;1.20;;
14316;SDS011;7242;50.858;6.586;2023-02-26T18:07:34;1.63;;;1.20;;
14316;SDS011;7242;50.858;6.586;2023-02-26T18:10:35;2.53;;;1.37;;
14316;SDS011;7242;50.858;6.586;2023-02-26T18:13:37;2.77;;;1.30;;
14316;SDS011;7242;50.858;6.586;2023-02-26T18:16:38;2.87;;;1.50;;
14316;SDS011;7242;50.858;6.586;2023-02-26T18:19:41;2.93;;;1.60;;
14316;SDS011;7242;50.858;6.586;2023-02-26T18:22:42;1.70;;;1.30;;
14316;SDS011;7242;50.858;6.586;2023-02-26T18:25:43;2.40;;;1.33;;
14316;SDS011;7242;50.858;6.586;2023-02-26T18:28:45;2.10;;;1.23;;
14316;SDS011;7242;50.858;6.586;2023-02-26T18:31:46;2.23;;;1.50;;
14316;SDS011;7242;50.858;6.586;2023-02-26T18:34:48;1.70;;;1.50;;
14316;SDS011;7242;50.858;6.586;2023-02-26T18:37:50;1.73;;;1.33;;
14316;SDS011;7242;50.858;6.586;2023-02-26T18:40:51;1.60;;;1.30;;
14316;SDS011;7242;50.858;6.586;2023-02-26T18:43:53;2.37;;;1.73;;
14316;SDS011;7242;50.858;6.586;2023-02-26T18:46:54;4.10;;;1.70;;
14316;SDS011;7242;50.858;6.586;2023-02-26T18:49:55;2.07;;;1.57;;
14316;SDS011;7242;50.858;6.586;2023-02-26T18:52:57;2.30;;;1.80;;
14316;SDS011;7242;50.858;6.586;2023-02-26T18:55:58;2.30;;;2.00;;
14316;SDS011;7242;50.858;6.586;2023-02-26T18:58:58;4.30;;;2.37;;
14316;SDS011;7242;50.858;6.586;2023-02-26T19:02:00;3.13;;;2.10;;
14316;SDS011;7242;50.858;6.586;2023-02-26T19:05:02;3.83;;;1.90;;
14316;SDS011;7242;50.858;6.586;2023-02-26T19:08:03;2.50;;;2.00;;
14316;SDS011;7242;50.858;6.586;2023-02-26T19:11:04;3.47;;;1.97;;
14316;SDS011;7242;50.858;6.586;2023-02-26T19:14:05;3.03;;;2.23;;
14316;SDS011;7242;50.858;6.586;2023-02-26T19:17:06;3.30;;;2.30;;
14316;SDS011;7242;50.858;6.586;2023-02-26T19:20:08;4.47;;;2.63;;
14316;SDS011;7242;50.858;6.586;2023-02-26T19:23:09;2.93;;;2.63;;
14316;SDS011;7242;50.858;6.586;2023-02-26T19:26:10;7.00;;;4.73;;
14316;SDS011;7242;50.858;6.586;2023-02-26T19:29:13;7.57;;;6.10;;
14316;SDS011;7242;50.858;6.586;2023-02-26T19:32:15;4.90;;;3.67;;
14316;SDS011;7242;50.858;6.586;2023-02-26T19:35:16;4.73;;;4.00;;
14316;SDS011;7242;50.858;6.586;2023-02-26T19:38:17;5.03;;;3.80;;
14316;SDS011;7242;50.858;6.586;2023-02-26T19:41:18;5.13;;;3.60;;
14316;SDS011;7242;50.858;6.586;2023-02-26T19:44:22;3.07;;;2.30;;
14316;SDS011;7242;50.858;6.586;2023-02-26T19:47:24;3.20;;;2.53;;
14316;SDS011;7242;50.858;6.586;2023-02-26T19:50:25;3.70;;;2.43;;
14316;SDS011;7242;50.858;6.586;2023-02-26T19:53:26;4.07;;;3.37;;
14316;SDS011;7242;50.858;6.586;2023-02-26T19:56:28;7.93;;;5.83;;
14316;SDS011;7242;50.858;6.586;2023-02-26T19:59:29;8.87;;;6.87;;
14316;SDS011;7242;50.858;6.586;2023-02-26T20:02:31;9.27;;;6.97;;
14316;SDS011;7242;50.858;6.586;2023-02-26T20:05:32;7.40;;;6.13;;
14316;SDS011;7242;50.858;6.586;2023-02-26T20:08:34;5.13;;;3.40;;
14316;SDS011;7242;50.858;6.586;2023-02-26T20:11:35;4.30;;;2.90;;
14316;SDS011;7242;50.858;6.586;2023-02-26T20:14:37;3.80;;;2.90;;
14316;SDS011;7242;50.858;6.586;2023-02-26T20:17:38;5.13;;;3.50;;
14316;SDS011;7242;50.858;6.586;2023-02-26T20:20:39;4.10;;;3.70;;
14316;SDS011;7242;50.858;6.586;2023-02-26T20:23:40;3.57;;;3.27;;
14316;SDS011;7242;50.858;6.586;2023-02-26T20:26:41;6.70;;;3.10;;
14316;SDS011;7242;50.858;6.586;2023-02-26T20:29:43;3.33;;;2.80;;
14316;SDS011;7242;50.858;6.586;2023-02-26T20:32:45;3.40;;;2.30;;
14316;SDS011;7242;50.858;6.586;2023-02-26T20:35:47;2.70;;;2.50;;
14316;SDS011;7242;50.858;6.586;2023-02-26T20:38:48;2.73;;;2.30;;
14316;SDS011;7242;50.858;6.586;2023-02-26T20:41:49;3.70;;;2.27;;
14316;SDS011;7242;50.858;6.586;2023-02-26T20:44:50;3.10;;;2.30;;
14316;SDS011;7242;50.858;6.586;2023-02-26T20:47:51;5.03;;;2.50;;
14316;SDS011;7242;50.858;6.586;2023-02-26T20:51:00;3.87;;;2.40;;
14316;SDS011;7242;50.858;6.586;2023-02-26T20:54:01;5.33;;;2.50;;
14316;SDS011;7242;50.858;6.586;2023-02-26T20:57:02;3.87;;;2.60;;
14316;SDS011;7242;50.858;6.586;2023-02-26T21:00:03;5.87;;;2.57;;
14316;SDS011;7242;50.858;6.586;2023-02-26T21:03:09;3.70;;;2.50;;
14316;SDS011;7242;50.858;6.586;2023-02-26T21:06:10;4.90;;;3.00;;
14316;SDS011;7242;50.858;6.586;2023-02-26T21:09:11;4.20;;;2.47;;
14316;SDS011;7242;50.858;6.586;2023-02-26T21:12:12;2.57;;;2.17;;
14316;SDS011;7242;50.858;6.586;2023-02-26T21:15:13;5.17;;;3.10;;
14316;SDS011;7242;50.858;6.586;2023-02-26T21:18:14;4.73;;;3.90;;
14316;SDS011;7242;50.858;6.586;2023-02-26T21:21:15;5.90;;;4.10;;
14316;SDS011;7242;50.858;6.586;2023-02-26T21:24:16;6.23;;;3.60;;
14316;SDS011;7242;50.858;6.586;2023-02-26T21:27:17;6.60;;;4.50;;